sensor_id;sensor_type;location;lat;lon;timestamp;P1;durP1;ratioP1;P2;durP2;ratioP2
8474;SDS011;4274;52.012;8.448;2022-11-15T00:00:26;50.57;;;8.90;;
8474;SDS011;4274;52.012;8.448;2022-11-15T00:02:52;51.50;;;9.13;;
8474;SDS011;4274;52.012;8.448;2022-11-15T00:05:18;58.00;;;9.30;;
8474;SDS011;4274;52.012;8.448;2022-11-15T00:07:43;52.63;;;8.80;;
8474;SDS011;4274;52.012;8.448;2022-11-15T00:10:09;51.77;;;9.23;;
8474;SDS011;4274;52.012;8.448;2022-11-15T00:12:34;53.77;;;9.10;;
8474;SDS011;4274;52.012;8.448;2022-11-15T00:15:00;52.23;;;8.67;;
8474;SDS011;4274;52.012;8.448;2022-11-15T00:17:26;52.43;;;8.80;;
8474;SDS011;4274;52.012;8.448;2022-11-15T00:19:51;51.00;;;8.47;;
8474;SDS011;4274;52.012;8.448;2022-11-15T00:22:17;51.40;;;8.53;;
8474;SDS011;4274;52.012;8.448;2022-11-15T00:24:42;50.03;;;7.70;;
8474;SDS011;4274;52.012;8.448;2022-11-15T00:27:08;49.90;;;7.70;;
8474;SDS011;4274;52.012;8.448;2022-11-15T00:29:33;51.80;;;8.00;;
8474;SDS011;4274;52.012;8.448;2022-11-15T00:31:59;49.07;;;7.83;;
8474;SDS011;4274;52.012;8.448;2022-11-15T00:34:25;48.03;;;7.30;;
8474;SDS011;4274;52.012;8.448;2022-11-15T00:36:50;49.77;;;7.03;;
8474;SDS011;4274;52.012;8.448;2022-11-15T00:39:16;50.93;;;7.50;;
8474;SDS011;4274;52.012;8.448;2022-11-15T00:41:41;47.70;;;7.70;;
8474;SDS011;4274;52.012;8.448;2022-11-15T00:44:07;48.80;;;6.90;;
8474;SDS011;4274;52.012;8.448;2022-11-15T00:46:33;49.40;;;7.63;;
8474;SDS011;4274;52.012;8.448;2022-11-15T00:48:58;48.27;;;7.00;;
8474;SDS011;4274;52.012;8.448;2022-11-15T00:51:24;48.67;;;7.50;;
8474;SDS011;4274;52.012;8.448;2022-11-15T00:53:49;48.97;;;6.83;;
8474;SDS011;4274;52.012;8.448;2022-11-15T00:56:15;49.23;;;7.63;;
8474;SDS011;4274;52.012;8.448;2022-11-15T00:58:40;51.47;;;7.40;;
8474;SDS011;4274;52.012;8.448;2022-11-15T01:01:10;48.13;;;6.43;;
8474;SDS011;4274;52.012;8.448;2022-11-15T01:03:37;51.10;;;7.50;;
8474;SDS011;4274;52.012;8.448;2022-11-15T01:06:04;48.00;;;6.67;;
8474;SDS011;4274;52.012;8.448;2022-11-15T01:08:30;48.27;;;7.30;;
8474;SDS011;4274;52.012;8.448;2022-11-15T01:11:03;47.10;;;6.87;;
8474;SDS011;4274;52.012;8.448;2022-11-15T01:13:31;49.00;;;7.10;;
8474;SDS011;4274;52.012;8.448;2022-11-15T01:15:57;47.93;;;6.87;;
8474;SDS011;4274;52.012;8.448;2022-11-15T01:18:23;51.93;;;6.37;;
8474;SDS011;4274;52.012;8.448;2022-11-15T01:20:49;47.97;;;6.90;;
8474;SDS011;4274;52.012;8.448;2022-11-15T01:23:14;47.80;;;6.83;;
8474;SDS011;4274;52.012;8.448;2022-11-15T01:25:40;51.50;;;7.47;;
8474;SDS011;4274;52.012;8.448;2022-11-15T01:28:06;48.10;;;6.87;;
8474;SDS011;4274;52.012;8.448;2022-11-15T01:30:31;51.27;;;8.33;;
8474;SDS011;4274;52.012;8.448;2022-11-15T01:32:57;51.03;;;7.07;;
8474;SDS011;4274;52.012;8.448;2022-11-15T01:35:22;51.77;;;7.47;;
8474;SDS011;4274;52.012;8.448;2022-11-15T01:37:48;49.47;;;7.30;;
8474;SDS011;4274;52.012;8.448;2022-11-15T01:40:15;48.63;;;7.47;;
8474;SDS011;4274;52.012;8.448;2022-11-15T01:42:40;49.77;;;7.53;;
8474;SDS011;4274;52.012;8.448;2022-11-15T01:45:07;48.40;;;7.20;;
8474;SDS011;4274;52.012;8.448;2022-11-15T01:47:40;50.47;;;7.40;;
8474;SDS011;4274;52.012;8.448;2022-11-15T01:50:10;48.97;;;7.07;;
8474;SDS011;4274;52.012;8.448;2022-11-15T01:52:39;48.13;;;7.00;;
8474;SDS011;4274;52.012;8.448;2022-11-15T01:55:21;48.90;;;6.87;;
8474;SDS011;4274;52.012;8.448;2022-11-15T01:57:50;49.80;;;6.60;;
8474;SDS011;4274;52.012;8.448;2022-11-15T02:00:19;50.63;;;7.73;;
8474;SDS011;4274;52.012;8.448;2022-11-15T02:02:45;50.57;;;8.07;;
8474;SDS011;4274;52.012;8.448;2022-11-15T02:05:10;48.90;;;7.50;;
8474;SDS011;4274;52.012;8.448;2022-11-15T02:07:36;51.17;;;7.90;;
8474;SDS011;4274;52.012;8.448;2022-11-15T02:10:04;50.07;;;7.30;;
8474;SDS011;4274;52.012;8.448;2022-11-15T02:12:33;50.83;;;7.83;;
8474;SDS011;4274;52.012;8.448;2022-11-15T02:14:59;54.50;;;7.47;;
8474;SDS011;4274;52.012;8.448;2022-11-15T02:20:28;50.80;;;7.43;;
8474;SDS011;4274;52.012;8.448;2022-11-15T02:34:18;53.60;;;7.43;;
8474;SDS011;4274;52.012;8.448;2022-11-15T02:39:46;50.50;;;8.37;;
8474;SDS011;4274;52.012;8.448;2022-11-15T02:42:39;49.73;;;7.87;;
8474;SDS011;4274;52.012;8.448;2022-11-15T02:45:31;52.03;;;7.80;;
8474;SDS011;4274;52.012;8.448;2022-11-15T02:48:00;51.73;;;8.37;;
8474;SDS011;4274;52.012;8.448;2022-11-15T02:50:28;54.27;;;9.10;;
8474;SDS011;4274;52.012;8.448;2022-11-15T02:52:56;49.47;;;8.50;;
8474;SDS011;4274;52.012;8.448;2022-11-15T02:55:32;52.77;;;8.37;;
8474;SDS011;4274;52.012;8.448;2022-11-15T03:01:24;50.13;;;8.00;;
8474;SDS011;4274;52.012;8.448;2022-11-15T03:04:10;53.50;;;8.63;;
8474;SDS011;4274;52.012;8.448;2022-11-15T03:06:51;52.23;;;8.80;;
8474;SDS011;4274;52.012;8.448;2022-11-15T03:09:32;52.23;;;8.70;;
8474;SDS011;4274;52.012;8.448;2022-11-15T03:12:12;54.87;;;9.20;;
8474;SDS011;4274;52.012;8.448;2022-11-15T03:17:21;52.13;;;9.37;;
8474;SDS011;4274;52.012;8.448;2022-11-15T03:19:51;50.73;;;9.33;;
8474;SDS011;4274;52.012;8.448;2022-11-15T03:22:20;50.07;;;8.43;;
8474;SDS011;4274;52.012;8.448;2022-11-15T03:24:51;54.90;;;9.57;;
8474;SDS011;4274;52.012;8.448;2022-11-15T03:27:20;59.50;;;9.30;;
8474;SDS011;4274;52.012;8.448;2022-11-15T03:29:54;51.53;;;8.03;;
8474;SDS011;4274;52.012;8.448;2022-11-15T03:32:25;50.20;;;9.33;;
8474;SDS011;4274;52.012;8.448;2022-11-15T03:34:58;54.47;;;8.83;;
8474;SDS011;4274;52.012;8.448;2022-11-15T03:40:06;52.17;;;9.33;;
8474;SDS011;4274;52.012;8.448;2022-11-15T03:42:35;58.17;;;11.27;;
8474;SDS011;4274;52.012;8.448;2022-11-15T03:48:02;51.80;;;9.50;;
8474;SDS011;4274;52.012;8.448;2022-11-15T03:50:34;53.30;;;10.17;;
8474;SDS011;4274;52.012;8.448;2022-11-15T03:53:00;60.33;;;10.10;;
8474;SDS011;4274;52.012;8.448;2022-11-15T03:55:25;56.13;;;10.40;;
8474;SDS011;4274;52.012;8.448;2022-11-15T03:57:52;55.60;;;9.93;;
8474;SDS011;4274;52.012;8.448;2022-11-15T04:00:21;58.20;;;10.17;;
8474;SDS011;4274;52.012;8.448;2022-11-15T04:02:46;54.37;;;10.23;;
8474;SDS011;4274;52.012;8.448;2022-11-15T04:05:12;52.47;;;9.47;;
8474;SDS011;4274;52.012;8.448;2022-11-15T04:07:37;69.63;;;11.13;;
8474;SDS011;4274;52.012;8.448;2022-11-15T04:10:03;58.03;;;11.60;;
8474;SDS011;4274;52.012;8.448;2022-11-15T04:12:34;54.50;;;10.57;;
8474;SDS011;4274;52.012;8.448;2022-11-15T04:15:09;58.37;;;10.23;;
8474;SDS011;4274;52.012;8.448;2022-11-15T04:20:05;53.33;;;10.77;;
8474;SDS011;4274;52.012;8.448;2022-11-15T04:22:57;62.50;;;11.20;;
8474;SDS011;4274;52.012;8.448;2022-11-15T04:25:42;55.63;;;11.33;;
8474;SDS011;4274;52.012;8.448;2022-11-15T04:28:09;55.67;;;10.90;;
8474;SDS011;4274;52.012;8.448;2022-11-15T04:30:36;55.43;;;12.23;;
8474;SDS011;4274;52.012;8.448;2022-11-15T04:33:02;54.43;;;10.60;;
8474;SDS011;4274;52.012;8.448;2022-11-15T04:35:27;55.67;;;10.70;;
8474;SDS011;4274;52.012;8.448;2022-11-15T04:37:54;53.67;;;10.97;;
8474;SDS011;4274;52.012;8.448;2022-11-15T04:40:20;62.13;;;10.57;;
8474;SDS011;4274;52.012;8.448;2022-11-15T04:42:46;51.60;;;9.43;;
8474;SDS011;4274;52.012;8.448;2022-11-15T04:45:11;56.20;;;11.43;;
8474;SDS011;4274;52.012;8.448;2022-11-15T04:47:37;54.43;;;10.67;;
8474;SDS011;4274;52.012;8.448;2022-11-15T04:50:03;54.00;;;11.13;;
8474;SDS011;4274;52.012;8.448;2022-11-15T04:52:28;54.20;;;11.20;;
8474;SDS011;4274;52.012;8.448;2022-11-15T04:54:54;56.90;;;10.63;;
8474;SDS011;4274;52.012;8.448;2022-11-15T04:57:20;55.20;;;11.03;;
8474;SDS011;4274;52.012;8.448;2022-11-15T04:59:45;54.70;;;11.30;;
8474;SDS011;4274;52.012;8.448;2022-11-15T05:02:11;61.83;;;12.03;;
8474;SDS011;4274;52.012;8.448;2022-11-15T05:04:37;55.87;;;12.40;;
8474;SDS011;4274;52.012;8.448;2022-11-15T05:07:02;53.80;;;11.70;;
8474;SDS011;4274;52.012;8.448;2022-11-15T05:09:31;59.97;;;11.20;;
8474;SDS011;4274;52.012;8.448;2022-11-15T05:11:56;56.80;;;11.93;;
8474;SDS011;4274;52.012;8.448;2022-11-15T05:14:22;62.27;;;11.53;;
8474;SDS011;4274;52.012;8.448;2022-11-15T05:16:47;57.67;;;12.43;;
8474;SDS011;4274;52.012;8.448;2022-11-15T05:19:14;56.17;;;11.50;;
8474;SDS011;4274;52.012;8.448;2022-11-15T05:21:39;63.00;;;11.77;;
8474;SDS011;4274;52.012;8.448;2022-11-15T05:24:05;58.10;;;12.30;;
8474;SDS011;4274;52.012;8.448;2022-11-15T05:26:31;56.20;;;11.53;;
8474;SDS011;4274;52.012;8.448;2022-11-15T05:28:58;58.47;;;11.60;;
8474;SDS011;4274;52.012;8.448;2022-11-15T05:31:24;56.03;;;11.77;;
8474;SDS011;4274;52.012;8.448;2022-11-15T05:33:51;54.27;;;11.50;;
8474;SDS011;4274;52.012;8.448;2022-11-15T05:39:03;53.73;;;11.40;;
8474;SDS011;4274;52.012;8.448;2022-11-15T05:41:32;53.60;;;11.93;;
8474;SDS011;4274;52.012;8.448;2022-11-15T05:44:02;56.20;;;11.60;;
8474;SDS011;4274;52.012;8.448;2022-11-15T05:46:30;53.97;;;11.33;;
8474;SDS011;4274;52.012;8.448;2022-11-15T05:48:58;57.70;;;11.70;;
8474;SDS011;4274;52.012;8.448;2022-11-15T05:51:24;60.27;;;12.10;;
8474;SDS011;4274;52.012;8.448;2022-11-15T05:53:53;52.97;;;11.57;;
8474;SDS011;4274;52.012;8.448;2022-11-15T05:56:20;57.30;;;13.07;;
8474;SDS011;4274;52.012;8.448;2022-11-15T05:58:46;57.13;;;11.90;;
8474;SDS011;4274;52.012;8.448;2022-11-15T06:01:12;55.27;;;11.50;;
8474;SDS011;4274;52.012;8.448;2022-11-15T06:03:37;54.27;;;11.23;;
8474;SDS011;4274;52.012;8.448;2022-11-15T06:06:03;61.03;;;11.63;;
8474;SDS011;4274;52.012;8.448;2022-11-15T06:08:29;56.37;;;11.50;;
8474;SDS011;4274;52.012;8.448;2022-11-15T06:10:54;56.30;;;11.30;;
8474;SDS011;4274;52.012;8.448;2022-11-15T06:13:20;54.97;;;10.83;;
8474;SDS011;4274;52.012;8.448;2022-11-15T06:15:45;54.80;;;11.37;;
8474;SDS011;4274;52.012;8.448;2022-11-15T06:18:11;57.77;;;10.90;;
8474;SDS011;4274;52.012;8.448;2022-11-15T06:20:37;54.07;;;11.30;;
8474;SDS011;4274;52.012;8.448;2022-11-15T06:23:03;52.53;;;10.23;;
8474;SDS011;4274;52.012;8.448;2022-11-15T06:25:30;57.87;;;10.53;;
8474;SDS011;4274;52.012;8.448;2022-11-15T06:27:56;52.07;;;9.87;;
8474;SDS011;4274;52.012;8.448;2022-11-15T06:30:24;63.23;;;10.97;;
8474;SDS011;4274;52.012;8.448;2022-11-15T06:32:50;55.87;;;11.47;;
8474;SDS011;4274;52.012;8.448;2022-11-15T06:35:16;54.67;;;9.43;;
8474;SDS011;4274;52.012;8.448;2022-11-15T06:37:42;52.97;;;9.93;;
8474;SDS011;4274;52.012;8.448;2022-11-15T06:40:08;55.40;;;10.13;;
8474;SDS011;4274;52.012;8.448;2022-11-15T06:42:34;51.17;;;9.90;;
8474;SDS011;4274;52.012;8.448;2022-11-15T06:45:00;54.40;;;10.50;;
8474;SDS011;4274;52.012;8.448;2022-11-15T06:47:26;59.40;;;10.07;;
8474;SDS011;4274;52.012;8.448;2022-11-15T06:49:51;56.97;;;10.90;;
8474;SDS011;4274;52.012;8.448;2022-11-15T06:52:17;57.33;;;9.00;;
8474;SDS011;4274;52.012;8.448;2022-11-15T06:54:44;51.37;;;9.17;;
8474;SDS011;4274;52.012;8.448;2022-11-15T06:57:09;51.77;;;10.10;;
8474;SDS011;4274;52.012;8.448;2022-11-15T06:59:35;51.20;;;10.30;;
8474;SDS011;4274;52.012;8.448;2022-11-15T07:02:01;52.43;;;9.40;;
8474;SDS011;4274;52.012;8.448;2022-11-15T07:04:27;52.57;;;9.47;;
8474;SDS011;4274;52.012;8.448;2022-11-15T07:06:52;53.00;;;10.10;;
8474;SDS011;4274;52.012;8.448;2022-11-15T07:09:18;50.80;;;8.73;;
8474;SDS011;4274;52.012;8.448;2022-11-15T07:11:44;54.93;;;10.07;;
8474;SDS011;4274;52.012;8.448;2022-11-15T07:14:09;51.10;;;9.80;;
8474;SDS011;4274;52.012;8.448;2022-11-15T07:16:35;53.20;;;10.00;;
8474;SDS011;4274;52.012;8.448;2022-11-15T07:19:01;58.50;;;10.90;;
8474;SDS011;4274;52.012;8.448;2022-11-15T07:21:27;57.37;;;9.77;;
8474;SDS011;4274;52.012;8.448;2022-11-15T07:23:53;53.27;;;9.90;;
8474;SDS011;4274;52.012;8.448;2022-11-15T07:26:18;49.57;;;8.17;;
8474;SDS011;4274;52.012;8.448;2022-11-15T07:28:44;52.60;;;9.00;;
8474;SDS011;4274;52.012;8.448;2022-11-15T07:31:10;51.77;;;9.00;;
8474;SDS011;4274;52.012;8.448;2022-11-15T07:33:36;52.03;;;9.60;;
8474;SDS011;4274;52.012;8.448;2022-11-15T07:36:02;49.60;;;8.70;;
8474;SDS011;4274;52.012;8.448;2022-11-15T07:38:29;50.23;;;8.57;;
8474;SDS011;4274;52.012;8.448;2022-11-15T07:40:56;49.33;;;8.30;;
8474;SDS011;4274;52.012;8.448;2022-11-15T07:43:26;50.00;;;8.50;;
8474;SDS011;4274;52.012;8.448;2022-11-15T07:45:55;55.43;;;8.53;;
8474;SDS011;4274;52.012;8.448;2022-11-15T07:48:21;49.70;;;7.77;;
8474;SDS011;4274;52.012;8.448;2022-11-15T07:50:47;55.70;;;9.17;;
8474;SDS011;4274;52.012;8.448;2022-11-15T07:53:13;48.10;;;7.63;;
8474;SDS011;4274;52.012;8.448;2022-11-15T07:55:39;51.10;;;8.27;;
8474;SDS011;4274;52.012;8.448;2022-11-15T07:58:07;52.77;;;9.00;;
8474;SDS011;4274;52.012;8.448;2022-11-15T08:00:34;55.87;;;7.70;;
8474;SDS011;4274;52.012;8.448;2022-11-15T08:05:37;50.10;;;8.47;;
8474;SDS011;4274;52.012;8.448;2022-11-15T08:08:04;55.23;;;8.67;;
8474;SDS011;4274;52.012;8.448;2022-11-15T08:10:30;57.10;;;8.57;;
8474;SDS011;4274;52.012;8.448;2022-11-15T08:12:57;54.30;;;7.43;;
8474;SDS011;4274;52.012;8.448;2022-11-15T08:15:27;49.90;;;7.57;;
8474;SDS011;4274;52.012;8.448;2022-11-15T08:17:54;53.20;;;7.30;;
8474;SDS011;4274;52.012;8.448;2022-11-15T08:20:21;48.80;;;7.30;;
8474;SDS011;4274;52.012;8.448;2022-11-15T08:22:46;49.47;;;6.97;;
8474;SDS011;4274;52.012;8.448;2022-11-15T08:27:51;49.90;;;6.80;;
8474;SDS011;4274;52.012;8.448;2022-11-15T08:30:18;47.37;;;6.50;;
8474;SDS011;4274;52.012;8.448;2022-11-15T08:32:43;50.57;;;7.47;;
8474;SDS011;4274;52.012;8.448;2022-11-15T08:35:09;47.97;;;6.53;;
8474;SDS011;4274;52.012;8.448;2022-11-15T08:37:34;60.03;;;8.10;;
8474;SDS011;4274;52.012;8.448;2022-11-15T08:40:00;49.23;;;6.23;;
8474;SDS011;4274;52.012;8.448;2022-11-15T08:42:26;48.93;;;6.30;;
8474;SDS011;4274;52.012;8.448;2022-11-15T08:44:52;49.50;;;6.00;;
8474;SDS011;4274;52.012;8.448;2022-11-15T08:47:17;46.97;;;5.20;;
8474;SDS011;4274;52.012;8.448;2022-11-15T08:49:43;46.40;;;5.63;;
8474;SDS011;4274;52.012;8.448;2022-11-15T08:52:08;48.87;;;5.60;;
8474;SDS011;4274;52.012;8.448;2022-11-15T08:54:34;47.40;;;5.17;;
8474;SDS011;4274;52.012;8.448;2022-11-15T08:56:59;47.90;;;6.37;;
8474;SDS011;4274;52.012;8.448;2022-11-15T08:59:25;48.50;;;5.03;;
8474;SDS011;4274;52.012;8.448;2022-11-15T09:01:51;45.90;;;4.57;;
8474;SDS011;4274;52.012;8.448;2022-11-15T09:04:16;46.47;;;4.87;;
8474;SDS011;4274;52.012;8.448;2022-11-15T09:06:42;48.63;;;4.00;;
8474;SDS011;4274;52.012;8.448;2022-11-15T09:09:08;45.40;;;4.40;;
8474;SDS011;4274;52.012;8.448;2022-11-15T09:11:33;45.87;;;4.30;;
8474;SDS011;4274;52.012;8.448;2022-11-15T09:13:59;46.40;;;4.87;;
8474;SDS011;4274;52.012;8.448;2022-11-15T09:16:24;45.63;;;4.40;;
8474;SDS011;4274;52.012;8.448;2022-11-15T09:18:50;48.03;;;4.40;;
8474;SDS011;4274;52.012;8.448;2022-11-15T09:21:16;47.50;;;4.20;;
8474;SDS011;4274;52.012;8.448;2022-11-15T09:23:41;44.93;;;3.97;;
8474;SDS011;4274;52.012;8.448;2022-11-15T09:26:07;45.97;;;4.03;;
8474;SDS011;4274;52.012;8.448;2022-11-15T09:28:32;49.90;;;3.90;;
8474;SDS011;4274;52.012;8.448;2022-11-15T09:30:59;46.00;;;4.00;;
8474;SDS011;4274;52.012;8.448;2022-11-15T09:33:26;45.63;;;4.00;;
8474;SDS011;4274;52.012;8.448;2022-11-15T09:35:53;45.40;;;3.67;;
8474;SDS011;4274;52.012;8.448;2022-11-15T09:38:19;46.10;;;3.80;;
8474;SDS011;4274;52.012;8.448;2022-11-15T09:40:45;44.23;;;3.40;;
8474;SDS011;4274;52.012;8.448;2022-11-15T09:46:08;45.37;;;3.77;;
8474;SDS011;4274;52.012;8.448;2022-11-15T09:48:59;44.20;;;3.13;;
8474;SDS011;4274;52.012;8.448;2022-11-15T09:56:47;45.73;;;3.30;;
8474;SDS011;4274;52.012;8.448;2022-11-15T10:02:00;45.10;;;3.00;;
8474;SDS011;4274;52.012;8.448;2022-11-15T10:04:37;44.60;;;3.03;;
8474;SDS011;4274;52.012;8.448;2022-11-15T10:12:45;44.20;;;2.90;;
8474;SDS011;4274;52.012;8.448;2022-11-15T10:15:14;46.03;;;2.80;;
8474;SDS011;4274;52.012;8.448;2022-11-15T10:20:29;48.90;;;2.90;;
8474;SDS011;4274;52.012;8.448;2022-11-15T10:23:01;44.27;;;2.50;;
8474;SDS011;4274;52.012;8.448;2022-11-15T10:25:32;44.43;;;2.50;;
8474;SDS011;4274;52.012;8.448;2022-11-15T10:27:59;44.30;;;2.60;;
8474;SDS011;4274;52.012;8.448;2022-11-15T10:30:30;43.93;;;2.33;;
8474;SDS011;4274;52.012;8.448;2022-11-15T10:32:58;48.00;;;2.90;;
8474;SDS011;4274;52.012;8.448;2022-11-15T10:46:44;44.57;;;2.20;;
8474;SDS011;4274;52.012;8.448;2022-11-15T10:49:16;45.73;;;2.23;;
8474;SDS011;4274;52.012;8.448;2022-11-15T10:51:53;44.80;;;2.33;;
8474;SDS011;4274;52.012;8.448;2022-11-15T10:57:10;44.90;;;2.13;;
8474;SDS011;4274;52.012;8.448;2022-11-15T10:59:44;46.27;;;2.60;;
8474;SDS011;4274;52.012;8.448;2022-11-15T11:05:25;44.87;;;2.33;;
8474;SDS011;4274;52.012;8.448;2022-11-15T11:07:58;44.53;;;2.10;;
8474;SDS011;4274;52.012;8.448;2022-11-15T11:10:26;45.57;;;2.37;;
8474;SDS011;4274;52.012;8.448;2022-11-15T11:12:52;47.10;;;2.53;;
8474;SDS011;4274;52.012;8.448;2022-11-15T11:15:17;46.23;;;2.40;;
8474;SDS011;4274;52.012;8.448;2022-11-15T11:20:41;45.50;;;2.20;;
8474;SDS011;4274;52.012;8.448;2022-11-15T11:29:08;44.93;;;2.40;;
8474;SDS011;4274;52.012;8.448;2022-11-15T11:37:00;45.53;;;2.40;;
8474;SDS011;4274;52.012;8.448;2022-11-15T11:47:51;47.40;;;2.53;;
8474;SDS011;4274;52.012;8.448;2022-11-15T11:50:32;46.50;;;2.90;;
8474;SDS011;4274;52.012;8.448;2022-11-15T11:53:09;48.17;;;2.50;;
8474;SDS011;4274;52.012;8.448;2022-11-15T11:55:40;48.70;;;2.50;;
8474;SDS011;4274;52.012;8.448;2022-11-15T12:00:52;46.90;;;2.77;;
8474;SDS011;4274;52.012;8.448;2022-11-15T12:03:25;47.70;;;2.50;;
8474;SDS011;4274;52.012;8.448;2022-11-15T12:06:02;46.40;;;2.50;;
8474;SDS011;4274;52.012;8.448;2022-11-15T12:08:47;48.70;;;2.63;;
8474;SDS011;4274;52.012;8.448;2022-11-15T12:11:23;46.17;;;2.50;;
8474;SDS011;4274;52.012;8.448;2022-11-15T12:14:04;45.70;;;2.50;;
8474;SDS011;4274;52.012;8.448;2022-11-15T12:16:37;46.10;;;2.60;;
8474;SDS011;4274;52.012;8.448;2022-11-15T12:19:07;47.03;;;2.70;;
8474;SDS011;4274;52.012;8.448;2022-11-15T12:21:39;46.30;;;2.70;;
8474;SDS011;4274;52.012;8.448;2022-11-15T12:24:21;45.67;;;2.80;;
8474;SDS011;4274;52.012;8.448;2022-11-15T12:27:00;46.60;;;2.90;;
8474;SDS011;4274;52.012;8.448;2022-11-15T12:29:50;50.10;;;2.80;;
8474;SDS011;4274;52.012;8.448;2022-11-15T12:32:29;45.50;;;2.43;;
8474;SDS011;4274;52.012;8.448;2022-11-15T12:34:59;47.87;;;3.00;;
8474;SDS011;4274;52.012;8.448;2022-11-15T12:43:04;48.35;;;2.20;;
8474;SDS011;4274;52.012;8.448;2022-11-15T12:45:39;45.60;;;2.97;;
8474;SDS011;4274;52.012;8.448;2022-11-15T12:48:52;47.17;;;2.63;;
8474;SDS011;4274;52.012;8.448;2022-11-15T12:51:00;47.83;;;2.80;;
8474;SDS011;4274;52.012;8.448;2022-11-15T12:58:49;47.53;;;3.07;;
8474;SDS011;4274;52.012;8.448;2022-11-15T13:10:07;44.67;;;2.43;;
8474;SDS011;4274;52.012;8.448;2022-11-15T13:17:02;49.27;;;3.00;;
8474;SDS011;4274;52.012;8.448;2022-11-15T13:20:33;44.67;;;2.50;;
8474;SDS011;4274;52.012;8.448;2022-11-15T13:28:00;45.10;;;2.30;;
8474;SDS011;4274;52.012;8.448;2022-11-15T13:30:33;44.00;;;2.40;;
8474;SDS011;4274;52.012;8.448;2022-11-15T13:33:00;44.37;;;2.40;;
8474;SDS011;4274;52.012;8.448;2022-11-15T13:36:05;44.23;;;2.50;;
8474;SDS011;4274;52.012;8.448;2022-11-15T13:38:35;44.60;;;2.53;;
8474;SDS011;4274;52.012;8.448;2022-11-15T13:42:02;45.20;;;2.47;;
8474;SDS011;4274;52.012;8.448;2022-11-15T13:43:59;46.73;;;2.37;;
8474;SDS011;4274;52.012;8.448;2022-11-15T13:46:29;45.47;;;2.77;;
8474;SDS011;4274;52.012;8.448;2022-11-15T13:49:03;45.00;;;2.53;;
8474;SDS011;4274;52.012;8.448;2022-11-15T13:51:33;49.33;;;2.10;;
8474;SDS011;4274;52.012;8.448;2022-11-15T13:59:31;44.70;;;2.57;;
8474;SDS011;4274;52.012;8.448;2022-11-15T14:02:11;46.80;;;2.47;;
8474;SDS011;4274;52.012;8.448;2022-11-15T14:04:45;44.67;;;2.53;;
8474;SDS011;4274;52.012;8.448;2022-11-15T14:07:16;44.50;;;2.50;;
8474;SDS011;4274;52.012;8.448;2022-11-15T14:09:43;43.50;;;2.30;;
8474;SDS011;4274;52.012;8.448;2022-11-15T14:15:01;43.97;;;2.33;;
8474;SDS011;4274;52.012;8.448;2022-11-15T14:17:43;43.33;;;2.10;;
8474;SDS011;4274;52.012;8.448;2022-11-15T14:20:24;44.47;;;2.60;;
8474;SDS011;4274;52.012;8.448;2022-11-15T14:23:01;46.97;;;2.40;;
8474;SDS011;4274;52.012;8.448;2022-11-15T14:25:51;44.30;;;2.23;;
8474;SDS011;4274;52.012;8.448;2022-11-15T14:30:44;46.73;;;2.30;;
8474;SDS011;4274;52.012;8.448;2022-11-15T14:33:19;50.53;;;2.50;;
8474;SDS011;4274;52.012;8.448;2022-11-15T14:35:48;45.83;;;2.83;;
8474;SDS011;4274;52.012;8.448;2022-11-15T14:38:14;44.60;;;2.53;;
8474;SDS011;4274;52.012;8.448;2022-11-15T14:40:40;45.70;;;2.50;;
8474;SDS011;4274;52.012;8.448;2022-11-15T14:43:08;46.20;;;2.67;;
8474;SDS011;4274;52.012;8.448;2022-11-15T14:45:36;45.13;;;2.60;;
8474;SDS011;4274;52.012;8.448;2022-11-15T14:48:01;46.17;;;2.67;;
8474;SDS011;4274;52.012;8.448;2022-11-15T14:50:27;44.07;;;2.43;;
8474;SDS011;4274;52.012;8.448;2022-11-15T14:52:53;45.80;;;2.63;;
8474;SDS011;4274;52.012;8.448;2022-11-15T14:55:20;46.50;;;2.60;;
8474;SDS011;4274;52.012;8.448;2022-11-15T14:57:48;44.10;;;2.70;;
8474;SDS011;4274;52.012;8.448;2022-11-15T15:00:15;43.70;;;2.30;;
8474;SDS011;4274;52.012;8.448;2022-11-15T15:02:42;45.70;;;2.80;;
8474;SDS011;4274;52.012;8.448;2022-11-15T15:05:22;44.60;;;2.90;;
8474;SDS011;4274;52.012;8.448;2022-11-15T15:08:07;51.23;;;2.80;;
8474;SDS011;4274;52.012;8.448;2022-11-15T15:10:41;44.90;;;2.80;;
8474;SDS011;4274;52.012;8.448;2022-11-15T15:13:18;47.97;;;3.57;;
8474;SDS011;4274;52.012;8.448;2022-11-15T15:15:49;46.47;;;3.50;;
8474;SDS011;4274;52.012;8.448;2022-11-15T15:18:15;45.30;;;3.30;;
8474;SDS011;4274;52.012;8.448;2022-11-15T15:20:41;46.50;;;3.60;;
8474;SDS011;4274;52.012;8.448;2022-11-15T15:23:13;46.00;;;4.00;;
8474;SDS011;4274;52.012;8.448;2022-11-15T15:25:40;50.07;;;3.77;;
8474;SDS011;4274;52.012;8.448;2022-11-15T15:28:07;46.33;;;3.90;;
8474;SDS011;4274;52.012;8.448;2022-11-15T15:30:32;50.77;;;3.93;;
8474;SDS011;4274;52.012;8.448;2022-11-15T15:32:58;44.80;;;3.70;;
8474;SDS011;4274;52.012;8.448;2022-11-15T15:35:23;49.90;;;3.50;;
8474;SDS011;4274;52.012;8.448;2022-11-15T15:37:54;46.00;;;4.27;;
8474;SDS011;4274;52.012;8.448;2022-11-15T15:40:20;52.63;;;3.30;;
8474;SDS011;4274;52.012;8.448;2022-11-15T15:42:47;46.87;;;3.70;;
8474;SDS011;4274;52.012;8.448;2022-11-15T15:45:13;55.40;;;6.70;;
8474;SDS011;4274;52.012;8.448;2022-11-15T15:47:40;47.20;;;4.23;;
8474;SDS011;4274;52.012;8.448;2022-11-15T15:50:25;52.60;;;3.80;;
8474;SDS011;4274;52.012;8.448;2022-11-15T15:52:57;48.23;;;3.60;;
8474;SDS011;4274;52.012;8.448;2022-11-15T15:55:25;49.67;;;3.43;;
8474;SDS011;4274;52.012;8.448;2022-11-15T15:57:51;45.40;;;3.60;;
8474;SDS011;4274;52.012;8.448;2022-11-15T16:00:18;46.97;;;3.20;;
8474;SDS011;4274;52.012;8.448;2022-11-15T16:02:44;45.30;;;3.63;;
8474;SDS011;4274;52.012;8.448;2022-11-15T16:05:10;47.93;;;3.73;;
8474;SDS011;4274;52.012;8.448;2022-11-15T16:07:37;47.00;;;3.80;;
8474;SDS011;4274;52.012;8.448;2022-11-15T16:10:13;45.57;;;3.33;;
8474;SDS011;4274;52.012;8.448;2022-11-15T16:12:39;48.10;;;3.73;;
8474;SDS011;4274;52.012;8.448;2022-11-15T16:15:05;51.33;;;3.37;;
8474;SDS011;4274;52.012;8.448;2022-11-15T16:17:35;45.77;;;3.70;;
8474;SDS011;4274;52.012;8.448;2022-11-15T16:20:04;46.77;;;3.97;;
8474;SDS011;4274;52.012;8.448;2022-11-15T16:22:30;50.43;;;3.70;;
8474;SDS011;4274;52.012;8.448;2022-11-15T16:24:56;45.80;;;3.70;;
8474;SDS011;4274;52.012;8.448;2022-11-15T16:27:22;46.90;;;4.10;;
8474;SDS011;4274;52.012;8.448;2022-11-15T16:29:48;47.00;;;3.80;;
8474;SDS011;4274;52.012;8.448;2022-11-15T16:32:14;45.27;;;3.30;;
8474;SDS011;4274;52.012;8.448;2022-11-15T16:34:40;50.67;;;3.90;;
8474;SDS011;4274;52.012;8.448;2022-11-15T16:37:11;46.50;;;4.13;;
8474;SDS011;4274;52.012;8.448;2022-11-15T16:39:49;48.07;;;4.00;;
8474;SDS011;4274;52.012;8.448;2022-11-15T16:42:15;49.67;;;4.50;;
8474;SDS011;4274;52.012;8.448;2022-11-15T16:44:41;47.00;;;4.23;;
8474;SDS011;4274;52.012;8.448;2022-11-15T16:47:19;45.30;;;3.40;;
8474;SDS011;4274;52.012;8.448;2022-11-15T16:49:45;53.13;;;4.40;;
8474;SDS011;4274;52.012;8.448;2022-11-15T16:52:10;46.80;;;3.90;;
8474;SDS011;4274;52.012;8.448;2022-11-15T16:54:36;45.83;;;4.17;;
8474;SDS011;4274;52.012;8.448;2022-11-15T16:57:02;46.63;;;4.10;;
8474;SDS011;4274;52.012;8.448;2022-11-15T16:59:28;46.80;;;4.00;;
8474;SDS011;4274;52.012;8.448;2022-11-15T17:01:54;46.67;;;3.70;;
8474;SDS011;4274;52.012;8.448;2022-11-15T17:04:20;47.87;;;3.97;;
8474;SDS011;4274;52.012;8.448;2022-11-15T17:06:46;46.83;;;3.97;;
8474;SDS011;4274;52.012;8.448;2022-11-15T17:09:13;46.07;;;3.50;;
8474;SDS011;4274;52.012;8.448;2022-11-15T17:11:41;46.50;;;4.43;;
8474;SDS011;4274;52.012;8.448;2022-11-15T17:14:08;48.30;;;4.30;;
8474;SDS011;4274;52.012;8.448;2022-11-15T17:16:34;48.50;;;4.27;;
8474;SDS011;4274;52.012;8.448;2022-11-15T17:19:02;47.40;;;3.97;;
8474;SDS011;4274;52.012;8.448;2022-11-15T17:21:28;48.43;;;4.10;;
8474;SDS011;4274;52.012;8.448;2022-11-15T17:23:53;45.57;;;3.90;;
8474;SDS011;4274;52.012;8.448;2022-11-15T17:26:20;46.50;;;3.77;;
8474;SDS011;4274;52.012;8.448;2022-11-15T17:28:46;51.43;;;4.30;;